الصفحة الرئيسية
METAR-TAF:

METAR-TAF

مطار :

Tocumen, بنما

دائرة عرض: 09-03N, خط طول: 079-22W, ارتفاع: 45 متر

مراقبة الطقس الحالي

تاريخ ووقت الإصدار 9 دقيقة قبل الساعة 10:00UTC
رياح هادئة
درجة الحرارة 21°درجة مئوية
الرطوبة 94%
ضغط 1010 hPa
الرؤية 10 كم أو أكثر
غيوم قليلة على ارتفاع 2000 قدم

METAR: MPTO 251000Z 00000KT 9999 FEW020 21/20 Q1010 NOSIG

زمن: 05:09 (10:09 UTC)

توقعات

تاريخ ووقت الإصدار 5ساعات و 9 دقيقة قبل الساعة 05:00UTC
التوقعات صالحة من25 الساعة 06 UTC إلى 26 الساعة 12 UTC
ريح 5 عقدة من الشمال/الشمال الشرقي
الرؤية 10 كم أو أكثر
غيوم قليلة على ارتفاع 1800 قدم
مؤقت
من 25 الساعة 06 UTC إلى 25 الساعة 10 UTC
ريح 2 عقدةمن اتجاهات متغيرة
مؤقت
من 25 الساعة 11 UTC إلى 25 الساعة 15 UTC
ريح 5 عقدة من الشمال الغربي
مؤقت
من 25 الساعة 18 UTC إلى 25 الساعة 22 UTC
ريح 5 عقدة من الجنوب
غيوم متفرقة على ارتفاع 1800 قدم
غيوم متفرقة على ارتفاع 9000 قدم

TAF: MPTO 250500Z 2506/2612 02005KT 9999 FEW018 TEMPO 2506/2510 VRB02KT TEMPO 2511/2515 31005KT TEMPO 2518/2522 18005KT SCT018 SCT090

أرصاد الطقس والتوقعات من أكثر من 4000 مطار (تقارير الطقس للمطار METAR والتنبؤ بالطقس بالمطارTAF).

المحطات المتاحة هي النقط الصفراء والحمراء على الخريطة.

حرك المؤشر فوق النقطة لمعرفة اسم المحطة.

ثم انقر لمعرفة أرصاد وتوقعات الطقس.

لتغيير الخارطة: اضغط على الأزرار الخضراء مع رمز الصليب الأسود للتكبير. على الزر الأخضر مع شرطة للتصغير، أو على الأسهم الخضراء للخرائط المجاورة.


METAR-TAF: